sensor_id;sensor_type;location;lat;lon;timestamp;pressure;altitude;pressure_sealevel;temperature;humidity
70411;BME280;57832;46.038;11.398;2023-04-24T09:13:19;95917.94;;;11.07;100.00
70411;BME280;57832;46.038;11.398;2023-04-24T09:15:45;95918.94;;;11.16;100.00
70411;BME280;57832;46.038;11.398;2023-04-24T09:18:11;95911.53;;;11.23;100.00
70411;BME280;57832;46.038;11.398;2023-04-24T09:23:26;95915.16;;;11.32;100.00
70411;BME280;57832;46.038;11.398;2023-04-24T09:25:55;95918.97;;;11.90;100.00
70411;BME280;57832;46.038;11.398;2023-04-24T09:28:26;95919.19;;;11.94;100.00
70411;BME280;57832;46.038;11.398;2023-04-24T09:31:22;95909.22;;;12.01;100.00
70411;BME280;57832;46.038;11.398;2023-04-24T09:33:54;95913.94;;;12.28;100.00
70411;BME280;57832;46.038;11.398;2023-04-24T09:36:32;95911.84;;;12.30;100.00
70411;BME280;57832;46.038;11.398;2023-04-24T09:39:11;95911.50;;;12.08;100.00
70411;BME280;57832;46.038;11.398;2023-04-24T09:41:51;95908.41;;;12.54;100.00
70411;BME280;57832;46.038;11.398;2023-04-24T09:44:22;95904.50;;;12.51;100.00
70411;BME280;57832;46.038;11.398;2023-04-24T09:46:53;95913.53;;;12.45;100.00
70411;BME280;57832;46.038;11.398;2023-04-24T09:49:26;95909.25;;;12.74;100.00
70411;BME280;57832;46.038;11.398;2023-04-24T09:52:02;95915.66;;;12.92;100.00
70411;BME280;57832;46.038;11.398;2023-04-24T09:54:28;95908.75;;;12.96;100.00
70411;BME280;57832;46.038;11.398;2023-04-24T09:56:55;95902.91;;;13.42;100.00
70411;BME280;57832;46.038;11.398;2023-04-24T09:59:22;95908.72;;;13.77;100.00
70411;BME280;57832;46.038;11.398;2023-04-24T10:01:47;95912.81;;;14.02;100.00
70411;BME280;57832;46.038;11.398;2023-04-24T10:04:25;95905.66;;;14.03;100.00
70411;BME280;57832;46.038;11.398;2023-04-24T10:06:52;95905.94;;;14.34;100.00
70411;BME280;57832;46.038;11.398;2023-04-24T10:09:20;95902.06;;;14.74;100.00
70411;BME280;57832;46.038;11.398;2023-04-24T10:11:48;95902.72;;;14.37;100.00
70411;BME280;57832;46.038;11.398;2023-04-24T10:14:16;95902.56;;;14.76;100.00
70411;BME280;57832;46.038;11.398;2023-04-24T10:16:43;95902.00;;;14.65;100.00
70411;BME280;57832;46.038;11.398;2023-04-24T10:19:09;95907.16;;;14.23;100.00
70411;BME280;57832;46.038;11.398;2023-04-24T10:21:36;95902.03;;;14.46;100.00
70411;BME280;57832;46.038;11.398;2023-04-24T10:24:10;95906.81;;;15.50;100.00
70411;BME280;57832;46.038;11.398;2023-04-24T10:26:37;95907.84;;;15.40;100.00
70411;BME280;57832;46.038;11.398;2023-04-24T10:29:05;95916.28;;;15.28;100.00
70411;BME280;57832;46.038;11.398;2023-04-24T10:31:36;95916.88;;;16.30;100.00
70411;BME280;57832;46.038;11.398;2023-04-24T10:34:02;95917.19;;;16.28;100.00
70411;BME280;57832;46.038;11.398;2023-04-24T10:36:29;95929.53;;;16.42;100.00
70411;BME280;57832;46.038;11.398;2023-04-24T10:38:59;95930.25;;;16.02;100.00
70411;BME280;57832;46.038;11.398;2023-04-24T10:41:25;95927.53;;;16.16;100.00
70411;BME280;57832;46.038;11.398;2023-04-24T10:44:11;95931.22;;;17.18;100.00
70411;BME280;57832;46.038;11.398;2023-04-24T10:46:38;95933.31;;;16.81;100.00
70411;BME280;57832;46.038;11.398;2023-04-24T10:49:07;95931.50;;;16.99;100.00
70411;BME280;57832;46.038;11.398;2023-04-24T10:51:45;95922.53;;;17.35;100.00
70411;BME280;57832;46.038;11.398;2023-04-24T10:54:41;95923.44;;;17.21;100.00
70411;BME280;57832;46.038;11.398;2023-04-24T10:59:49;95933.75;;;16.74;100.00
70411;BME280;57832;46.038;11.398;2023-04-24T11:02:16;95942.56;;;16.29;100.00
70411;BME280;57832;46.038;11.398;2023-04-24T11:04:43;95939.41;;;16.27;100.00
70411;BME280;57832;46.038;11.398;2023-04-24T11:07:09;95943.59;;;16.51;100.00
70411;BME280;57832;46.038;11.398;2023-04-24T11:09:35;95937.47;;;16.42;100.00
70411;BME280;57832;46.038;11.398;2023-04-24T11:12:06;95940.75;;;16.38;100.00
70411;BME280;57832;46.038;11.398;2023-04-24T11:17:35;95924.41;;;16.85;100.00
70411;BME280;57832;46.038;11.398;2023-04-24T11:20:08;95931.22;;;16.69;100.00
70411;BME280;57832;46.038;11.398;2023-04-24T11:22:38;95936.50;;;16.29;100.00
70411;BME280;57832;46.038;11.398;2023-04-24T11:25:06;95940.28;;;16.14;100.00
70411;BME280;57832;46.038;11.398;2023-04-24T11:27:42;95934.06;;;16.81;100.00
70411;BME280;57832;46.038;11.398;2023-04-24T11:30:09;95934.69;;;18.24;100.00
70411;BME280;57832;46.038;11.398;2023-04-24T11:32:40;95942.22;;;16.94;100.00
70411;BME280;57832;46.038;11.398;2023-04-24T11:37:39;95936.25;;;18.63;100.00
70411;BME280;57832;46.038;11.398;2023-04-24T11:40:07;95923.41;;;19.85;100.00
70411;BME280;57832;46.038;11.398;2023-04-24T11:42:35;95940.38;;;20.26;100.00
70411;BME280;57832;46.038;11.398;2023-04-24T11:45:00;95930.69;;;21.29;100.00
70411;BME280;57832;46.038;11.398;2023-04-24T11:47:30;95932.31;;;21.59;99.52
70411;BME280;57832;46.038;11.398;2023-04-24T11:49:59;95922.53;;;20.27;100.00
70411;BME280;57832;46.038;11.398;2023-04-24T11:54:50;95913.19;;;24.00;72.55
70411;BME280;57832;46.038;11.398;2023-04-24T11:57:19;95917.09;;;25.22;55.27
70411;BME280;57832;46.038;11.398;2023-04-24T11:59:44;95907.78;;;27.52;48.06
70411;BME280;57832;46.038;11.398;2023-04-24T12:04:47;95894.09;;;27.16;41.50
70411;BME280;57832;46.038;11.398;2023-04-24T12:07:13;95899.81;;;24.66;55.57
70411;BME280;57832;46.038;11.398;2023-04-24T12:09:46;95893.53;;;22.82;76.67
70411;BME280;57832;46.038;11.398;2023-04-24T12:12:13;95897.25;;;23.48;69.31
70411;BME280;57832;46.038;11.398;2023-04-24T12:14:58;95894.97;;;25.59;56.36
70411;BME280;57832;46.038;11.398;2023-04-24T12:17:26;95888.28;;;24.19;61.21
70411;BME280;57832;46.038;11.398;2023-04-24T12:19:57;95890.88;;;23.17;75.81
70411;BME280;57832;46.038;11.398;2023-04-24T12:22:23;95885.06;;;25.63;60.29
70411;BME280;57832;46.038;11.398;2023-04-24T12:24:59;95881.00;;;23.57;55.72
70411;BME280;57832;46.038;11.398;2023-04-24T12:27:26;95879.31;;;26.02;46.26
70411;BME280;57832;46.038;11.398;2023-04-24T12:29:56;95886.28;;;26.48;48.77
70411;BME280;57832;46.038;11.398;2023-04-24T12:32:22;95889.72;;;26.04;47.77
70411;BME280;57832;46.038;11.398;2023-04-24T12:34:49;95884.53;;;27.26;47.06
70411;BME280;57832;46.038;11.398;2023-04-24T12:37:16;95873.72;;;28.83;41.95
70411;BME280;57832;46.038;11.398;2023-04-24T12:40:04;95870.88;;;29.48;37.70
70411;BME280;57832;46.038;11.398;2023-04-24T12:42:31;95863.06;;;30.39;35.67
70411;BME280;57832;46.038;11.398;2023-04-24T12:44:58;95859.50;;;30.94;33.83
70411;BME280;57832;46.038;11.398;2023-04-24T12:47:25;95857.88;;;29.14;37.01
70411;BME280;57832;46.038;11.398;2023-04-24T12:49:51;95855.53;;;29.12;38.01
70411;BME280;57832;46.038;11.398;2023-04-24T12:52:21;95846.59;;;26.83;39.25
70411;BME280;57832;46.038;11.398;2023-04-24T12:54:46;95856.91;;;26.74;43.37
70411;BME280;57832;46.038;11.398;2023-04-24T12:57:12;95847.34;;;25.90;45.40
70411;BME280;57832;46.038;11.398;2023-04-24T12:59:37;95855.19;;;24.08;57.33
70411;BME280;57832;46.038;11.398;2023-04-24T13:02:05;95853.69;;;25.10;50.23
70411;BME280;57832;46.038;11.398;2023-04-24T13:04:31;95846.97;;;25.54;49.44
70411;BME280;57832;46.038;11.398;2023-04-24T13:06:57;95847.47;;;25.02;47.39
70411;BME280;57832;46.038;11.398;2023-04-24T13:09:23;95841.63;;;26.85;46.71
70411;BME280;57832;46.038;11.398;2023-04-24T13:11:49;95835.81;;;25.90;44.14
70411;BME280;57832;46.038;11.398;2023-04-24T13:14:15;95835.00;;;25.17;48.98
70411;BME280;57832;46.038;11.398;2023-04-24T13:16:41;95828.56;;;27.72;43.56
70411;BME280;57832;46.038;11.398;2023-04-24T13:19:06;95831.00;;;29.74;36.74
70411;BME280;57832;46.038;11.398;2023-04-24T13:21:32;95812.06;;;30.37;33.67
70411;BME280;57832;46.038;11.398;2023-04-24T13:23:57;95809.16;;;30.62;33.99
70411;BME280;57832;46.038;11.398;2023-04-24T13:26:23;95807.56;;;31.07;32.20
70411;BME280;57832;46.038;11.398;2023-04-24T13:28:48;95811.34;;;26.99;37.29
70411;BME280;57832;46.038;11.398;2023-04-24T13:31:14;95802.00;;;30.83;35.36
70411;BME280;57832;46.038;11.398;2023-04-24T13:33:39;95802.88;;;32.27;30.60
70411;BME280;57832;46.038;11.398;2023-04-24T13:36:05;95796.38;;;30.21;31.04
70411;BME280;57832;46.038;11.398;2023-04-24T13:38:31;95801.28;;;28.89;33.83
70411;BME280;57832;46.038;11.398;2023-04-24T13:40:57;95793.38;;;29.41;33.45
70411;BME280;57832;46.038;11.398;2023-04-24T13:43:22;95783.06;;;30.38;32.67
70411;BME280;57832;46.038;11.398;2023-04-24T13:45:48;95782.13;;;31.31;31.16
70411;BME280;57832;46.038;11.398;2023-04-24T13:48:14;95782.56;;;29.41;34.11
70411;BME280;57832;46.038;11.398;2023-04-24T13:50:43;95778.66;;;30.96;31.52
70411;BME280;57832;46.038;11.398;2023-04-24T13:53:09;95775.09;;;31.68;28.83
70411;BME280;57832;46.038;11.398;2023-04-24T13:55:35;95767.16;;;29.42;32.15
70411;BME280;57832;46.038;11.398;2023-04-24T13:58:01;95769.25;;;29.76;33.18
70411;BME280;57832;46.038;11.398;2023-04-24T14:00:27;95761.78;;;29.31;31.57
70411;BME280;57832;46.038;11.398;2023-04-24T14:02:53;95764.88;;;25.19;37.80
70411;BME280;57832;46.038;11.398;2023-04-24T14:05:18;95761.94;;;23.70;43.82
70411;BME280;57832;46.038;11.398;2023-04-24T14:07:46;95762.56;;;21.82;57.12
70411;BME280;57832;46.038;11.398;2023-04-24T14:10:11;95761.97;;;21.45;57.05
70411;BME280;57832;46.038;11.398;2023-04-24T14:12:37;95760.22;;;23.39;46.50
70411;BME280;57832;46.038;11.398;2023-04-24T14:15:03;95764.59;;;21.57;61.06
70411;BME280;57832;46.038;11.398;2023-04-24T14:17:30;95765.09;;;23.53;70.29
70411;BME280;57832;46.038;11.398;2023-04-24T14:19:56;95759.09;;;22.81;58.51
70411;BME280;57832;46.038;11.398;2023-04-24T14:22:22;95755.91;;;22.24;50.60
70411;BME280;57832;46.038;11.398;2023-04-24T14:24:47;95754.25;;;20.99;58.68
70411;BME280;57832;46.038;11.398;2023-04-24T14:27:13;95754.59;;;20.97;68.32
70411;BME280;57832;46.038;11.398;2023-04-24T14:29:39;95750.06;;;21.14;61.01
70411;BME280;57832;46.038;11.398;2023-04-24T14:32:04;95760.81;;;21.58;72.83
70411;BME280;57832;46.038;11.398;2023-04-24T14:34:30;95751.63;;;21.15;60.56
70411;BME280;57832;46.038;11.398;2023-04-24T14:36:55;95753.72;;;20.68;60.64
70411;BME280;57832;46.038;11.398;2023-04-24T14:39:21;95765.97;;;19.95;73.58
70411;BME280;57832;46.038;11.398;2023-04-24T14:41:47;95771.09;;;19.21;100.00
70411;BME280;57832;46.038;11.398;2023-04-24T14:44:12;95767.91;;;19.07;100.00
70411;BME280;57832;46.038;11.398;2023-04-24T14:46:38;95765.72;;;18.58;100.00
70411;BME280;57832;46.038;11.398;2023-04-24T14:49:03;95767.00;;;19.24;100.00
70411;BME280;57832;46.038;11.398;2023-04-24T14:51:29;95764.13;;;18.86;100.00
70411;BME280;57832;46.038;11.398;2023-04-24T14:53:56;95762.50;;;18.73;100.00
70411;BME280;57832;46.038;11.398;2023-04-24T14:56:21;95762.34;;;18.48;100.00
70411;BME280;57832;46.038;11.398;2023-04-24T14:58:47;95760.03;;;18.47;100.00
70411;BME280;57832;46.038;11.398;2023-04-24T15:01:12;95757.88;;;18.40;100.00
70411;BME280;57832;46.038;11.398;2023-04-24T15:03:38;95750.81;;;18.44;100.00
70411;BME280;57832;46.038;11.398;2023-04-24T15:06:04;95762.41;;;18.40;100.00
70411;BME280;57832;46.038;11.398;2023-04-24T15:08:29;95759.47;;;18.83;100.00
70411;BME280;57832;46.038;11.398;2023-04-24T15:10:55;95770.91;;;18.75;100.00
70411;BME280;57832;46.038;11.398;2023-04-24T15:13:20;95764.44;;;18.64;100.00
70411;BME280;57832;46.038;11.398;2023-04-24T15:15:46;95766.38;;;18.25;100.00
70411;BME280;57832;46.038;11.398;2023-04-24T15:18:12;95765.97;;;18.14;100.00
70411;BME280;57832;46.038;11.398;2023-04-24T15:20:38;95764.53;;;18.16;100.00
70411;BME280;57832;46.038;11.398;2023-04-24T15:23:09;95774.47;;;18.79;100.00
70411;BME280;57832;46.038;11.398;2023-04-24T15:25:35;95772.19;;;18.18;100.00
70411;BME280;57832;46.038;11.398;2023-04-24T15:28:01;95776.56;;;18.74;100.00
70411;BME280;57832;46.038;11.398;2023-04-24T15:30:27;95778.75;;;19.01;100.00
70411;BME280;57832;46.038;11.398;2023-04-24T15:32:52;95774.13;;;18.90;100.00
70411;BME280;57832;46.038;11.398;2023-04-24T15:35:18;95769.69;;;18.21;100.00
70411;BME280;57832;46.038;11.398;2023-04-24T15:37:44;95757.13;;;18.61;98.84
70411;BME280;57832;46.038;11.398;2023-04-24T15:40:10;95770.88;;;18.84;98.93
70411;BME280;57832;46.038;11.398;2023-04-24T15:42:39;95764.59;;;18.88;90.50
70411;BME280;57832;46.038;11.398;2023-04-24T15:45:05;95763.03;;;18.87;79.56
70411;BME280;57832;46.038;11.398;2023-04-24T15:47:32;95758.88;;;18.78;70.24
70411;BME280;57832;46.038;11.398;2023-04-24T15:49:57;95764.19;;;18.78;80.29
70411;BME280;57832;46.038;11.398;2023-04-24T15:52:23;95763.06;;;18.58;81.23
70411;BME280;57832;46.038;11.398;2023-04-24T15:54:48;95758.28;;;18.51;86.12
70411;BME280;57832;46.038;11.398;2023-04-24T15:57:14;95755.38;;;18.44;82.50
70411;BME280;57832;46.038;11.398;2023-04-24T15:59:40;95769.41;;;18.44;81.61
70411;BME280;57832;46.038;11.398;2023-04-24T16:02:08;95762.22;;;18.45;85.82
70411;BME280;57832;46.038;11.398;2023-04-24T16:04:36;95759.75;;;18.40;89.94
70411;BME280;57832;46.038;11.398;2023-04-24T16:07:01;95747.84;;;18.46;92.58
70411;BME280;57832;46.038;11.398;2023-04-24T16:09:27;95759.78;;;18.31;96.08
70411;BME280;57832;46.038;11.398;2023-04-24T16:11:53;95761.22;;;18.28;97.07
70411;BME280;57832;46.038;11.398;2023-04-24T16:14:18;95756.97;;;18.06;94.52
70411;BME280;57832;46.038;11.398;2023-04-24T16:16:44;95755.84;;;18.07;91.57
70411;BME280;57832;46.038;11.398;2023-04-24T16:19:09;95757.44;;;17.91;90.60
70411;BME280;57832;46.038;11.398;2023-04-24T16:21:35;95761.41;;;17.76;88.88
70411;BME280;57832;46.038;11.398;2023-04-24T16:24:00;95758.31;;;17.65;87.42
70411;BME280;57832;46.038;11.398;2023-04-24T16:26:26;95762.72;;;17.61;90.86
70411;BME280;57832;46.038;11.398;2023-04-24T16:28:51;95763.75;;;17.77;100.00
70411;BME280;57832;46.038;11.398;2023-04-24T16:31:17;95761.84;;;17.78;100.00
70411;BME280;57832;46.038;11.398;2023-04-24T16:33:42;95763.41;;;17.79;100.00
70411;BME280;57832;46.038;11.398;2023-04-24T16:36:08;95763.91;;;17.81;100.00
70411;BME280;57832;46.038;11.398;2023-04-24T16:38:34;95764.50;;;17.78;100.00
70411;BME280;57832;46.038;11.398;2023-04-24T16:41:00;95758.50;;;17.60;97.88
70411;BME280;57832;46.038;11.398;2023-04-24T16:43:25;95764.72;;;17.64;100.00
70411;BME280;57832;46.038;11.398;2023-04-24T16:45:52;95768.00;;;17.52;100.00
70411;BME280;57832;46.038;11.398;2023-04-24T16:48:18;95762.25;;;17.32;100.00
70411;BME280;57832;46.038;11.398;2023-04-24T16:50:43;95760.91;;;17.00;100.00
70411;BME280;57832;46.038;11.398;2023-04-24T16:53:10;95766.19;;;16.91;100.00
70411;BME280;57832;46.038;11.398;2023-04-24T16:55:35;95771.72;;;16.54;100.00
70411;BME280;57832;46.038;11.398;2023-04-24T16:58:01;95778.63;;;16.15;100.00
70411;BME280;57832;46.038;11.398;2023-04-24T17:00:26;95781.25;;;16.15;100.00
70411;BME280;57832;46.038;11.398;2023-04-24T17:02:52;95781.88;;;16.03;100.00
70411;BME280;57832;46.038;11.398;2023-04-24T17:05:17;95785.84;;;15.92;100.00
70411;BME280;57832;46.038;11.398;2023-04-24T17:07:45;95791.22;;;15.78;100.00
70411;BME280;57832;46.038;11.398;2023-04-24T17:10:10;95797.47;;;15.60;100.00
70411;BME280;57832;46.038;11.398;2023-04-24T17:12:36;95806.78;;;15.57;100.00
70411;BME280;57832;46.038;11.398;2023-04-24T17:15:02;95810.69;;;15.60;100.00
70411;BME280;57832;46.038;11.398;2023-04-24T17:17:27;95812.50;;;15.50;100.00
70411;BME280;57832;46.038;11.398;2023-04-24T17:19:53;95825.41;;;15.29;100.00
70411;BME280;57832;46.038;11.398;2023-04-24T17:22:18;95829.19;;;15.00;100.00
70411;BME280;57832;46.038;11.398;2023-04-24T17:24:44;95829.34;;;15.18;100.00
70411;BME280;57832;46.038;11.398;2023-04-24T17:27:10;95838.88;;;15.05;100.00
70411;BME280;57832;46.038;11.398;2023-04-24T17:29:35;95833.53;;;14.68;100.00
70411;BME280;57832;46.038;11.398;2023-04-24T17:32:01;95847.63;;;14.64;100.00
70411;BME280;57832;46.038;11.398;2023-04-24T17:34:27;95847.69;;;14.45;100.00
70411;BME280;57832;46.038;11.398;2023-04-24T17:36:53;95850.44;;;14.67;100.00
70411;BME280;57832;46.038;11.398;2023-04-24T17:39:18;95850.06;;;14.46;100.00
70411;BME280;57832;46.038;11.398;2023-04-24T17:41:44;95861.09;;;14.34;100.00
70411;BME280;57832;46.038;11.398;2023-04-24T17:44:09;95868.53;;;13.85;100.00
70411;BME280;57832;46.038;11.398;2023-04-24T17:46:35;95872.69;;;13.73;100.00
70411;BME280;57832;46.038;11.398;2023-04-24T17:49:00;95875.88;;;13.69;100.00
70411;BME280;57832;46.038;11.398;2023-04-24T17:51:26;95871.00;;;13.63;100.00
70411;BME280;57832;46.038;11.398;2023-04-24T17:53:52;95882.63;;;13.43;100.00
70411;BME280;57832;46.038;11.398;2023-04-24T17:56:18;95885.94;;;13.29;100.00
70411;BME280;57832;46.038;11.398;2023-04-24T17:58:43;95889.03;;;13.36;100.00
70411;BME280;57832;46.038;11.398;2023-04-24T18:01:09;95902.50;;;13.30;100.00
70411;BME280;57832;46.038;11.398;2023-04-24T18:03:35;95905.78;;;13.21;100.00
70411;BME280;57832;46.038;11.398;2023-04-24T18:06:00;95916.59;;;13.01;100.00
70411;BME280;57832;46.038;11.398;2023-04-24T18:08:26;95920.50;;;12.55;100.00
70411;BME280;57832;46.038;11.398;2023-04-24T18:10:53;95933.38;;;12.57;100.00
70411;BME280;57832;46.038;11.398;2023-04-24T18:13:18;95933.78;;;12.69;100.00
70411;BME280;57832;46.038;11.398;2023-04-24T18:15:44;95950.75;;;12.58;100.00
70411;BME280;57832;46.038;11.398;2023-04-24T18:18:10;95955.66;;;12.40;100.00
70411;BME280;57832;46.038;11.398;2023-04-24T18:20:35;95952.16;;;12.45;100.00
70411;BME280;57832;46.038;11.398;2023-04-24T18:23:01;95962.47;;;12.41;100.00
70411;BME280;57832;46.038;11.398;2023-04-24T18:25:28;95974.59;;;12.08;100.00
70411;BME280;57832;46.038;11.398;2023-04-24T18:27:54;95980.78;;;11.82;100.00
70411;BME280;57832;46.038;11.398;2023-04-24T18:30:21;95984.19;;;11.83;100.00
70411;BME280;57832;46.038;11.398;2023-04-24T18:32:48;95984.03;;;11.69;100.00
70411;BME280;57832;46.038;11.398;2023-04-24T18:35:14;95997.75;;;11.56;100.00
70411;BME280;57832;46.038;11.398;2023-04-24T18:37:40;95997.56;;;11.36;100.00
70411;BME280;57832;46.038;11.398;2023-04-24T18:40:06;96000.69;;;11.44;100.00
70411;BME280;57832;46.038;11.398;2023-04-24T18:42:32;96006.91;;;11.58;100.00
70411;BME280;57832;46.038;11.398;2023-04-24T18:44:57;96004.97;;;11.29;100.00
70411;BME280;57832;46.038;11.398;2023-04-24T18:47:26;96015.06;;;10.81;100.00
70411;BME280;57832;46.038;11.398;2023-04-24T18:49:52;96020.56;;;10.84;100.00
70411;BME280;57832;46.038;11.398;2023-04-24T18:52:17;96022.31;;;11.25;100.00
70411;BME280;57832;46.038;11.398;2023-04-24T18:54:43;96032.84;;;11.10;100.00
70411;BME280;57832;46.038;11.398;2023-04-24T18:57:09;96033.91;;;11.03;100.00
70411;BME280;57832;46.038;11.398;2023-04-24T18:59:34;96040.28;;;10.51;100.00
70411;BME280;57832;46.038;11.398;2023-04-24T19:02:00;96042.63;;;10.42;100.00
70411;BME280;57832;46.038;11.398;2023-04-24T19:04:25;96048.44;;;10.49;100.00
70411;BME280;57832;46.038;11.398;2023-04-24T19:06:51;96046.03;;;10.79;100.00
70411;BME280;57832;46.038;11.398;2023-04-24T19:09:16;96059.41;;;10.26;100.00
70411;BME280;57832;46.038;11.398;2023-04-24T19:11:42;96063.31;;;10.08;100.00
70411;BME280;57832;46.038;11.398;2023-04-24T19:14:08;96069.94;;;10.41;100.00
70411;BME280;57832;46.038;11.398;2023-04-24T19:16:35;96076.97;;;10.35;100.00
70411;BME280;57832;46.038;11.398;2023-04-24T19:19:00;96076.16;;;10.30;100.00
70411;BME280;57832;46.038;11.398;2023-04-24T19:21:26;96084.53;;;10.16;100.00
70411;BME280;57832;46.038;11.398;2023-04-24T19:23:52;96092.94;;;10.29;100.00
70411;BME280;57832;46.038;11.398;2023-04-24T19:26:21;96093.13;;;9.86;100.00
70411;BME280;57832;46.038;11.398;2023-04-24T19:28:47;96095.25;;;9.89;100.00
70411;BME280;57832;46.038;11.398;2023-04-24T19:31:13;96098.41;;;10.01;100.00
70411;BME280;57832;46.038;11.398;2023-04-24T19:33:39;96106.78;;;10.03;100.00
70411;BME280;57832;46.038;11.398;2023-04-24T19:36:04;96110.03;;;9.58;100.00
70411;BME280;57832;46.038;11.398;2023-04-24T19:38:30;96114.75;;;9.61;100.00
70411;BME280;57832;46.038;11.398;2023-04-24T19:40:56;96114.66;;;10.09;100.00
70411;BME280;57832;46.038;11.398;2023-04-24T19:43:21;96115.16;;;9.95;100.00
70411;BME280;57832;46.038;11.398;2023-04-24T19:45:47;96114.03;;;9.70;100.00
70411;BME280;57832;46.038;11.398;2023-04-24T19:48:14;96121.28;;;9.53;100.00
70411;BME280;57832;46.038;11.398;2023-04-24T19:50:40;96133.22;;;9.33;100.00
70411;BME280;57832;46.038;11.398;2023-04-24T19:53:05;96130.41;;;9.45;100.00
70411;BME280;57832;46.038;11.398;2023-04-24T19:55:31;96137.19;;;9.41;100.00
70411;BME280;57832;46.038;11.398;2023-04-24T19:57:56;96139.28;;;9.39;100.00
70411;BME280;57832;46.038;11.398;2023-04-24T20:00:22;96139.84;;;9.46;100.00
70411;BME280;57832;46.038;11.398;2023-04-24T20:02:47;96137.88;;;9.26;100.00
70411;BME280;57832;46.038;11.398;2023-04-24T20:05:13;96136.50;;;9.13;100.00
70411;BME280;57832;46.038;11.398;2023-04-24T20:07:38;96137.47;;;9.02;100.00
70411;BME280;57832;46.038;11.398;2023-04-24T20:10:04;96137.00;;;9.10;100.00
70411;BME280;57832;46.038;11.398;2023-04-24T20:12:30;96149.81;;;9.07;100.00
70411;BME280;57832;46.038;11.398;2023-04-24T20:14:56;96154.53;;;9.10;100.00
70411;BME280;57832;46.038;11.398;2023-04-24T20:17:21;96154.41;;;8.89;100.00
70411;BME280;57832;46.038;11.398;2023-04-24T20:19:47;96153.63;;;8.94;100.00
70411;BME280;57832;46.038;11.398;2023-04-24T20:22:12;96156.63;;;9.13;100.00
70411;BME280;57832;46.038;11.398;2023-04-24T20:24:38;96159.03;;;9.14;100.00
70411;BME280;57832;46.038;11.398;2023-04-24T20:27:03;96154.69;;;9.35;100.00
70411;BME280;57832;46.038;11.398;2023-04-24T20:29:29;96162.97;;;9.22;100.00
70411;BME280;57832;46.038;11.398;2023-04-24T20:31:55;96166.63;;;9.16;100.00
70411;BME280;57832;46.038;11.398;2023-04-24T20:34:21;96174.03;;;8.97;100.00
70411;BME280;57832;46.038;11.398;2023-04-24T20:36:46;96177.75;;;8.68;100.00
70411;BME280;57832;46.038;11.398;2023-04-24T20:39:12;96184.50;;;8.64;100.00
70411;BME280;57832;46.038;11.398;2023-04-24T20:41:38;96176.56;;;8.54;100.00
70411;BME280;57832;46.038;11.398;2023-04-24T20:44:05;96184.91;;;8.51;100.00
70411;BME280;57832;46.038;11.398;2023-04-24T20:46:31;96184.84;;;8.46;100.00
70411;BME280;57832;46.038;11.398;2023-04-24T20:48:57;96183.13;;;8.57;100.00
70411;BME280;57832;46.038;11.398;2023-04-24T20:51:23;96182.41;;;8.61;100.00
70411;BME280;57832;46.038;11.398;2023-04-24T20:53:49;96189.38;;;8.50;100.00
70411;BME280;57832;46.038;11.398;2023-04-24T20:56:17;96185.63;;;8.74;100.00
70411;BME280;57832;46.038;11.398;2023-04-24T20:58:47;96187.91;;;8.65;100.00
70411;BME280;57832;46.038;11.398;2023-04-24T21:01:13;96177.13;;;8.34;100.00
70411;BME280;57832;46.038;11.398;2023-04-24T21:03:39;96185.81;;;8.40;100.00
70411;BME280;57832;46.038;11.398;2023-04-24T21:06:05;96189.72;;;8.37;100.00
70411;BME280;57832;46.038;11.398;2023-04-24T21:08:30;96192.25;;;8.81;100.00
70411;BME280;57832;46.038;11.398;2023-04-24T21:10:56;96187.88;;;8.60;100.00
70411;BME280;57832;46.038;11.398;2023-04-24T21:13:21;96186.06;;;8.38;100.00
70411;BME280;57832;46.038;11.398;2023-04-24T21:15:47;96192.25;;;8.54;100.00
70411;BME280;57832;46.038;11.398;2023-04-24T21:18:12;96190.09;;;8.73;100.00
70411;BME280;57832;46.038;11.398;2023-04-24T21:20:38;96196.03;;;8.68;100.00
70411;BME280;57832;46.038;11.398;2023-04-24T21:23:04;96188.34;;;8.84;100.00
70411;BME280;57832;46.038;11.398;2023-04-24T21:25:30;96187.53;;;8.83;100.00
70411;BME280;57832;46.038;11.398;2023-04-24T21:27:57;96186.19;;;8.76;100.00
